createdAt,value
2019-06-01T00:00:16.064Z,100.00
2019-06-01T00:02:51.194Z,100.00
2019-06-01T00:05:15.561Z,100.00
2019-06-01T00:07:44.927Z,100.00
2019-06-01T00:10:13.906Z,100.00
2019-06-01T00:12:43.510Z,100.00
2019-06-01T00:15:12.569Z,100.00
2019-06-01T00:17:41.842Z,100.00
2019-06-01T00:20:10.912Z,100.00
2019-06-01T00:22:39.527Z,100.00
2019-06-01T00:25:08.745Z,100.00
2019-06-01T00:27:37.870Z,100.00
2019-06-01T00:30:07.560Z,100.00
2019-06-01T00:32:36.214Z,100.00
2019-06-01T00:35:05.893Z,100.00
2019-06-01T00:37:34.532Z,100.00
2019-06-01T00:40:03.312Z,100.00
2019-06-01T00:42:32.332Z,100.00
2019-06-01T00:45:00.996Z,100.00
2019-06-01T00:47:29.951Z,100.00
2019-06-01T00:49:58.576Z,100.00
2019-06-01T00:52:27.231Z,100.00
2019-06-01T00:54:55.939Z,100.00
2019-06-01T00:57:24.651Z,100.00
2019-06-01T00:59:56.444Z,100.00
2019-06-01T01:02:25.104Z,100.00
2019-06-01T01:05:10.967Z,100.00
2019-06-01T01:07:39.672Z,100.00
2019-06-01T01:10:08.703Z,100.00
2019-06-01T01:12:38.991Z,100.00
2019-06-01T01:15:07.908Z,100.00
2019-06-01T01:17:36.720Z,100.00
2019-06-01T01:20:08.643Z,100.00
2019-06-01T01:22:37.336Z,100.00
2019-06-01T01:25:06.973Z,100.00
2019-06-01T01:27:35.679Z,100.00
2019-06-01T01:30:06.135Z,100.00
2019-06-01T01:32:34.790Z,100.00
2019-06-01T01:35:04.089Z,100.00
2019-06-01T01:37:32.885Z,100.00
2019-06-01T01:40:01.557Z,100.00
2019-06-01T01:42:30.334Z,100.00
2019-06-01T01:44:58.995Z,100.00
2019-06-01T01:47:27.672Z,100.00
2019-06-01T01:49:56.388Z,100.00
2019-06-01T01:52:25.102Z,100.00
2019-06-01T01:55:14.410Z,100.00
2019-06-01T01:57:43.121Z,100.00
2019-06-01T02:00:13.590Z,100.00
2019-06-01T02:02:42.351Z,100.00
2019-06-01T02:05:12.042Z,100.00
2019-06-01T02:07:41.161Z,100.00
2019-06-01T02:10:10.824Z,100.00
2019-06-01T02:12:39.495Z,100.00
2019-06-01T02:15:08.659Z,100.00
2019-06-01T02:17:37.317Z,100.00
2019-06-01T02:20:06.683Z,100.00
2019-06-01T02:22:35.333Z,100.00
2019-06-01T02:25:05.646Z,100.00
2019-06-01T02:27:34.444Z,100.00
2019-06-01T02:30:05.656Z,100.00
2019-06-01T02:32:33.875Z,100.00
2019-06-01T02:35:02.787Z,100.00
2019-06-01T02:37:31.558Z,100.00
2019-06-01T02:40:00.986Z,100.00
2019-06-01T02:42:30.114Z,100.00
2019-06-01T02:44:59.253Z,100.00
2019-06-01T02:47:28.046Z,100.00
2019-06-01T02:49:57.658Z,100.00
2019-06-01T02:52:26.622Z,100.00
2019-06-01T02:54:55.591Z,100.00
2019-06-01T02:57:24.442Z,100.00
2019-06-01T02:59:56.326Z,100.00
2019-06-01T03:02:25.036Z,100.00
2019-06-01T03:04:55.413Z,100.00
2019-06-01T03:07:26.070Z,100.00
2019-06-01T03:09:56.016Z,100.00
2019-06-01T03:12:26.312Z,100.00
2019-06-01T03:14:58.319Z,100.00
2019-06-01T03:17:30.045Z,100.00
2019-06-01T03:20:02.476Z,100.00
2019-06-01T03:22:33.432Z,100.00
2019-06-01T03:25:05.931Z,100.00
2019-06-01T03:27:36.488Z,100.00
2019-06-01T03:30:09.843Z,100.00
2019-06-01T03:32:38.387Z,100.00
2019-06-01T03:35:07.455Z,100.00
2019-06-01T03:37:36.132Z,100.00
2019-06-01T03:40:15.933Z,100.00
2019-06-01T03:42:37.828Z,100.00
2019-06-01T03:45:07.624Z,100.00
2019-06-01T03:47:36.456Z,100.00
2019-06-01T03:50:06.950Z,100.00
2019-06-01T03:52:35.584Z,100.00
2019-06-01T03:55:05.881Z,100.00
2019-06-01T03:57:34.582Z,100.00
2019-06-01T04:00:04.991Z,100.00
2019-06-01T04:02:33.675Z,100.00
2019-06-01T04:05:03.522Z,100.00
2019-06-01T04:07:32.532Z,100.00
2019-06-01T04:10:01.693Z,100.00
2019-06-01T04:12:30.585Z,100.00
2019-06-01T04:14:59.402Z,100.00
2019-06-01T04:17:28.220Z,100.00
2019-06-01T04:19:56.826Z,100.00
2019-06-01T04:22:25.565Z,100.00
2019-06-01T04:24:54.249Z,100.00
2019-06-01T04:27:24.532Z,100.00
2019-06-01T04:29:56.318Z,100.00
2019-06-01T04:32:25.141Z,100.00
2019-06-01T04:34:55.400Z,100.00
2019-06-01T04:37:24.226Z,100.00
2019-06-01T04:39:52.960Z,100.00
2019-06-01T04:42:22.116Z,100.00
2019-06-01T04:44:52.512Z,100.00
2019-06-01T04:47:21.385Z,100.00
2019-06-01T04:49:50.193Z,100.00
2019-06-01T04:52:18.881Z,100.00
2019-06-01T04:54:47.412Z,100.00
2019-06-01T04:57:16.239Z,100.00
2019-06-01T04:59:45.063Z,100.00
2019-06-01T05:02:13.775Z,100.00
2019-06-01T05:04:43.628Z,100.00
2019-06-01T05:07:13.493Z,100.00
2019-06-01T05:09:42.377Z,100.00
2019-06-01T05:12:11.424Z,99.48
2019-06-01T05:14:40.736Z,99.04
2019-06-01T05:17:10.151Z,98.90
2019-06-01T05:19:39.015Z,97.84
2019-06-01T05:22:08.401Z,98.68
2019-06-01T05:24:37.374Z,98.02
2019-06-01T05:27:06.939Z,96.52
2019-06-01T05:29:35.732Z,96.17
2019-06-01T05:32:04.766Z,95.73
2019-06-01T05:34:33.458Z,95.97
2019-06-01T05:37:02.123Z,95.60
2019-06-01T05:39:30.768Z,95.00
2019-06-01T05:41:59.554Z,93.09
2019-06-01T05:44:28.668Z,92.68
2019-06-01T05:46:57.337Z,92.37
2019-06-01T05:49:26.123Z,91.32
2019-06-01T05:51:54.855Z,90.85
2019-06-01T05:54:23.581Z,91.50
2019-06-01T05:56:52.261Z,91.36
2019-06-01T05:59:23.619Z,89.89
2019-06-01T06:01:52.557Z,89.42
2019-06-01T06:04:21.646Z,90.49
2019-06-01T06:06:50.352Z,89.71
2019-06-01T06:09:19.230Z,90.14
2019-06-01T06:11:47.956Z,91.32
2019-06-01T06:14:17.623Z,91.51
2019-06-01T06:16:46.434Z,89.56
2019-06-01T06:19:17.895Z,89.80
2019-06-01T06:21:45.641Z,89.34
2019-06-01T06:24:14.740Z,90.86
2019-06-01T06:26:43.464Z,89.50
2019-06-01T06:29:12.754Z,88.70
2019-06-01T06:31:41.439Z,87.66
2019-06-01T06:34:10.020Z,87.31
2019-06-01T06:36:38.797Z,86.48
2019-06-01T06:39:08.458Z,85.48
2019-06-01T06:41:37.109Z,85.92
2019-06-01T06:44:05.890Z,85.56
2019-06-01T06:46:34.952Z,85.46
2019-06-01T06:49:03.652Z,84.57
2019-06-01T06:51:32.406Z,86.33
2019-06-01T06:54:01.218Z,84.56
2019-06-01T06:56:29.945Z,85.66
2019-06-01T06:58:59.080Z,82.33
2019-06-01T07:01:27.734Z,82.18
2019-06-01T07:04:11.377Z,86.28
2019-06-01T07:06:30.048Z,82.22
2019-06-01T07:08:58.957Z,85.40
2019-06-01T07:11:27.611Z,81.35
2019-06-01T07:13:57.042Z,79.18
2019-06-01T07:16:25.741Z,80.42
2019-06-01T07:18:54.472Z,81.36
2019-06-01T07:21:26.153Z,84.62
2019-06-01T07:23:54.966Z,79.73
2019-06-01T07:26:26.225Z,79.53
2019-06-01T07:28:54.993Z,79.25
2019-06-01T07:31:26.195Z,77.42
2019-06-01T07:33:55.293Z,79.27
2019-06-01T07:36:27.169Z,76.54
2019-06-01T07:38:56.043Z,77.71
2019-06-01T07:41:24.750Z,80.02
2019-06-01T07:43:53.426Z,77.01
2019-06-01T07:46:22.810Z,74.47
2019-06-01T07:48:52.477Z,77.31
2019-06-01T07:51:23.214Z,78.44
2019-06-01T07:53:53.805Z,74.50
2019-06-01T07:56:26.526Z,77.97
2019-06-01T07:58:55.740Z,77.67
2019-06-01T08:01:25.781Z,75.54
2019-06-01T08:03:54.925Z,74.41
2019-06-01T08:06:24.430Z,72.66
2019-06-01T08:08:57.413Z,73.91
2019-06-01T08:11:30.113Z,73.69
2019-06-01T08:13:56.706Z,72.02
2019-06-01T08:16:25.944Z,69.14
2019-06-01T08:18:54.779Z,68.42
2019-06-01T08:21:24.014Z,67.99
2019-06-01T08:23:52.829Z,66.08
2019-06-01T08:26:24.549Z,65.62
2019-06-01T08:28:56.325Z,67.99
2019-06-01T08:31:24.975Z,67.40
2019-06-01T08:33:53.671Z,68.53
2019-06-01T08:36:23.217Z,68.51
2019-06-01T08:38:53.659Z,66.27
2019-06-01T08:41:25.580Z,68.75
2019-06-01T08:43:54.304Z,66.39
2019-06-01T08:46:25.529Z,64.62
2019-06-01T08:48:54.416Z,63.33
2019-06-01T08:51:26.351Z,67.08
2019-06-01T08:53:55.248Z,64.53
2019-06-01T08:56:28.245Z,61.02
2019-06-01T08:58:57.102Z,60.78
2019-06-01T09:01:26.416Z,58.79
2019-06-01T09:03:55.111Z,60.12
2019-06-01T09:06:25.336Z,63.19
2019-06-01T09:08:56.801Z,58.53
2019-06-01T09:11:25.528Z,57.00
2019-06-01T09:13:54.244Z,62.67
2019-06-01T09:16:25.540Z,59.26
2019-06-01T09:18:54.368Z,56.89
2019-06-01T09:21:25.352Z,61.54
2019-06-01T09:23:57.088Z,56.42
2019-06-01T09:26:26.322Z,60.47
2019-06-01T09:28:56.506Z,58.22
2019-06-01T09:31:26.271Z,60.74
2019-06-01T09:33:54.956Z,56.97
2019-06-01T09:36:23.980Z,57.71
2019-06-01T09:38:52.625Z,56.09
2019-06-01T09:41:23.787Z,59.75
2019-06-01T09:43:55.869Z,59.29
2019-06-01T09:46:24.601Z,57.62
2019-06-01T09:48:56.490Z,56.40
2019-06-01T09:51:25.196Z,55.00
2019-06-01T09:53:55.450Z,54.76
2019-06-01T09:56:29.122Z,55.94
2019-06-01T09:58:57.405Z,53.54
2019-06-01T10:01:26.084Z,53.09
2019-06-01T10:03:54.836Z,52.79
2019-06-01T10:06:23.661Z,51.87
2019-06-01T10:08:52.436Z,55.04
2019-06-01T10:11:21.499Z,51.22
2019-06-01T10:13:50.229Z,52.40
2019-06-01T10:16:19.255Z,54.99
2019-06-01T10:18:47.964Z,51.28
2019-06-01T10:21:16.906Z,51.29
2019-06-01T10:23:49.012Z,51.02
2019-06-01T10:26:16.159Z,51.15
2019-06-01T10:28:44.864Z,51.77
2019-06-01T10:31:13.487Z,53.01
2019-06-01T10:33:43.317Z,52.54
2019-06-01T10:36:20.296Z,51.75
2019-06-01T10:38:42.419Z,50.40
2019-06-01T10:41:11.106Z,51.77
2019-06-01T10:43:39.835Z,53.97
2019-06-01T10:46:08.609Z,53.46
2019-06-01T10:48:38.082Z,54.57
2019-06-01T10:51:06.868Z,53.56
2019-06-01T10:53:36.377Z,49.47
2019-06-01T10:56:05.406Z,49.53
2019-06-01T10:58:35.976Z,50.48
2019-06-01T11:01:04.519Z,50.67
2019-06-01T11:03:33.446Z,51.01
2019-06-01T11:06:03.352Z,46.34
2019-06-01T11:08:32.829Z,48.07
2019-06-01T11:11:01.538Z,47.02
2019-06-01T11:13:30.628Z,46.01
2019-06-01T11:15:59.331Z,47.00
2019-06-01T11:18:28.146Z,48.35
2019-06-01T11:20:56.653Z,48.14
2019-06-01T11:23:25.263Z,48.23
2019-06-01T11:25:56.951Z,45.78
2019-06-01T11:28:25.770Z,49.65
2019-06-01T11:30:54.479Z,46.81
2019-06-01T11:33:25.969Z,48.24
2019-06-01T11:35:54.677Z,46.21
2019-06-01T11:38:23.333Z,44.75
2019-06-01T11:40:52.112Z,44.59
2019-06-01T11:43:20.858Z,45.29
2019-06-01T11:45:49.640Z,44.00
2019-06-01T11:48:18.364Z,44.00
2019-06-01T11:50:47.384Z,45.29
2019-06-01T11:53:16.052Z,42.68
2019-06-01T11:55:45.569Z,43.80
2019-06-01T11:58:14.466Z,47.45
2019-06-01T12:00:43.773Z,44.98
2019-06-01T12:03:12.625Z,42.62
2019-06-01T12:05:42.118Z,44.66
2019-06-01T12:08:10.966Z,42.60
2019-06-01T12:10:39.622Z,42.56
2019-06-01T12:13:08.385Z,42.99
2019-06-01T12:15:38.287Z,44.23
2019-06-01T12:18:07.248Z,43.78
2019-06-01T12:20:36.631Z,42.69
2019-06-01T12:23:05.408Z,41.84
2019-06-01T12:25:34.635Z,44.31
2019-06-01T12:28:03.450Z,40.96
2019-06-01T12:30:32.167Z,40.73
2019-06-01T12:33:00.884Z,41.80
2019-06-01T12:35:29.551Z,40.82
2019-06-01T12:38:05.907Z,40.75
2019-06-01T12:40:29.104Z,42.48
2019-06-01T12:42:57.786Z,41.81
2019-06-01T12:45:26.514Z,40.42
2019-06-01T12:47:58.456Z,44.28
2019-06-01T12:50:25.555Z,41.81
2019-06-01T12:52:54.386Z,41.34
2019-06-01T12:55:24.533Z,40.73
2019-06-01T12:57:56.208Z,40.14
2019-06-01T13:00:25.161Z,40.70
2019-06-01T13:03:06.465Z,41.80
2019-06-01T13:05:25.856Z,39.03
2019-06-01T13:08:01.676Z,39.44
2019-06-01T13:10:24.870Z,39.98
2019-06-01T13:12:53.546Z,41.39
2019-06-01T13:15:22.266Z,41.94
2019-06-01T13:17:51.478Z,39.80
2019-06-01T13:20:20.981Z,40.59
2019-06-01T13:22:50.037Z,41.14
2019-06-01T13:25:18.961Z,40.92
2019-06-01T13:27:48.860Z,39.69
2019-06-01T13:30:17.766Z,39.62
2019-06-01T13:32:46.604Z,38.77
2019-06-01T13:35:15.236Z,37.68
2019-06-01T13:37:44.484Z,38.37
2019-06-01T13:40:13.758Z,37.82
2019-06-01T13:42:42.939Z,36.70
2019-06-01T13:45:11.958Z,37.09
2019-06-01T13:47:41.222Z,37.95
2019-06-01T13:50:09.976Z,36.98
2019-06-01T13:52:38.770Z,40.42
2019-06-01T13:55:08.231Z,37.80
2019-06-01T13:57:39.549Z,38.11
2019-06-01T14:00:08.282Z,35.43
2019-06-01T14:02:36.919Z,35.75
2019-06-01T14:05:07.269Z,36.39
2019-06-01T14:07:35.920Z,36.44
2019-06-01T14:10:06.876Z,35.74
2019-06-01T14:12:35.651Z,35.22
2019-06-01T14:15:07.051Z,33.95
2019-06-01T14:17:35.948Z,34.18
2019-06-01T14:20:07.220Z,35.09
2019-06-01T14:22:35.932Z,36.38
2019-06-01T14:25:12.841Z,34.68
2019-06-01T14:27:36.594Z,36.17
2019-06-01T14:30:07.190Z,34.12
2019-06-01T14:32:35.900Z,34.55
2019-06-01T14:35:06.672Z,34.72
2019-06-01T14:37:35.321Z,39.30
2019-06-01T14:40:05.290Z,34.91
2019-06-01T14:42:34.055Z,32.24
2019-06-01T14:45:04.992Z,35.45
2019-06-01T14:47:33.917Z,31.66
2019-06-01T14:50:02.690Z,30.58
2019-06-01T14:52:35.130Z,28.22
2019-06-01T14:55:02.157Z,29.51
2019-06-01T14:57:30.952Z,29.43
2019-06-01T14:59:59.666Z,28.19
2019-06-01T15:02:28.676Z,30.89
2019-06-01T15:04:58.639Z,26.99
2019-06-01T15:07:27.432Z,28.00
2019-06-01T15:09:56.394Z,27.80
2019-06-01T15:12:25.131Z,27.58
2019-06-01T15:14:55.554Z,26.81
2019-06-01T15:17:24.261Z,27.08
2019-06-01T15:19:54.356Z,26.66
2019-06-01T15:22:24.466Z,26.10
2019-06-01T15:24:56.514Z,27.82
2019-06-01T15:27:25.212Z,28.72
2019-06-01T15:29:57.013Z,25.87
2019-06-01T15:32:26.787Z,25.86
2019-06-01T15:34:56.565Z,28.14
2019-06-01T15:37:25.639Z,30.05
2019-06-01T15:39:54.658Z,26.14
2019-06-01T15:42:26.352Z,26.86
2019-06-01T15:44:55.191Z,28.42
2019-06-01T15:47:26.913Z,27.57
2019-06-01T15:49:55.800Z,28.41
2019-06-01T15:52:24.450Z,30.60
2019-06-01T15:54:54.263Z,34.70
2019-06-01T15:57:24.324Z,32.44
2019-06-01T15:59:54.617Z,35.71
2019-06-01T16:02:26.525Z,32.85
2019-06-01T16:04:55.407Z,34.08
2019-06-01T16:07:27.159Z,34.31
2019-06-01T16:09:57.317Z,34.06
2019-06-01T16:12:26.017Z,34.45
2019-06-01T16:14:55.462Z,34.27
2019-06-01T16:17:24.299Z,35.25
2019-06-01T16:19:55.786Z,35.50
2019-06-01T16:22:24.593Z,37.35
2019-06-01T16:24:56.214Z,36.80
2019-06-01T16:27:24.903Z,40.16
2019-06-01T16:29:54.573Z,35.87
2019-06-01T16:32:26.216Z,37.18
2019-06-01T16:34:56.797Z,39.08
2019-06-01T16:37:25.562Z,38.10
2019-06-01T16:40:01.652Z,41.25
2019-06-01T16:42:24.874Z,38.66
2019-06-01T16:44:53.692Z,38.82
2019-06-01T16:47:25.383Z,41.67
2019-06-01T16:49:57.601Z,37.63
2019-06-01T16:52:26.406Z,40.08
2019-06-01T16:54:56.193Z,42.70
2019-06-01T16:57:24.976Z,42.63
2019-06-01T16:59:53.680Z,41.13
2019-06-01T17:02:25.071Z,39.69
2019-06-01T17:04:56.465Z,42.26
2019-06-01T17:07:25.288Z,40.57
2019-06-01T17:09:58.620Z,40.71
2019-06-01T17:12:27.945Z,42.93
2019-06-01T17:14:57.198Z,41.63
2019-06-01T17:17:25.879Z,41.48
2019-06-01T17:19:54.555Z,41.64
2019-06-01T17:22:26.284Z,40.32
2019-06-01T17:24:54.995Z,40.29
2019-06-01T17:27:23.725Z,40.99
2019-06-01T17:29:55.634Z,43.58
2019-06-01T17:32:24.968Z,41.62
2019-06-01T17:34:55.225Z,41.48
2019-06-01T17:37:25.485Z,42.41
2019-06-01T17:39:54.920Z,42.03
2019-06-01T17:42:23.644Z,41.12
2019-06-01T17:44:52.563Z,41.77
2019-06-01T17:47:27.122Z,40.09
2019-06-01T17:49:55.230Z,40.75
2019-06-01T17:52:25.391Z,41.15
2019-06-01T17:54:56.880Z,40.91
2019-06-01T17:57:25.603Z,41.01
2019-06-01T17:59:54.390Z,43.33
2019-06-01T18:02:24.679Z,42.81
2019-06-01T18:04:56.365Z,42.48
2019-06-01T18:07:25.065Z,43.57
2019-06-01T18:09:55.241Z,43.79
2019-06-01T18:12:25.481Z,43.22
2019-06-01T18:14:57.147Z,45.08
2019-06-01T18:17:26.002Z,42.92
2019-06-01T18:19:54.674Z,42.21
2019-06-01T18:22:26.416Z,44.23
2019-06-01T18:24:55.548Z,43.23
2019-06-01T18:27:24.264Z,44.26
2019-06-01T18:29:54.433Z,44.45
2019-06-01T18:32:24.589Z,44.93
2019-06-01T18:34:55.984Z,45.87
2019-06-01T18:37:24.709Z,45.17
2019-06-01T18:39:53.428Z,47.36
2019-06-01T18:42:25.109Z,47.10
2019-06-01T18:44:55.619Z,47.96
2019-06-01T18:47:32.263Z,48.51
2019-06-01T18:49:55.063Z,48.37
2019-06-01T18:52:24.608Z,48.71
2019-06-01T18:54:53.424Z,48.64
2019-06-01T18:57:22.319Z,49.03
2019-06-01T18:59:51.175Z,49.52
2019-06-01T19:02:19.901Z,49.83
2019-06-01T19:04:48.725Z,50.04
2019-06-01T19:07:17.437Z,51.11
2019-06-01T19:09:46.171Z,51.37
2019-06-01T19:12:15.573Z,51.66
2019-06-01T19:14:44.330Z,51.92
2019-06-01T19:17:14.345Z,52.35
2019-06-01T19:19:43.084Z,52.22
2019-06-01T19:22:12.518Z,52.33
2019-06-01T19:24:41.337Z,52.78
2019-06-01T19:27:10.727Z,52.86
2019-06-01T19:29:39.587Z,52.96
2019-06-01T19:32:08.768Z,53.50
2019-06-01T19:34:37.634Z,53.88
2019-06-01T19:37:09.124Z,54.23
2019-06-01T19:39:38.171Z,54.54
2019-06-01T19:42:09.139Z,55.22
2019-06-01T19:44:38.081Z,55.49
2019-06-01T19:47:08.249Z,55.95
2019-06-01T19:49:43.648Z,56.25
2019-06-01T19:52:10.839Z,56.70
2019-06-01T19:54:39.955Z,56.92
2019-06-01T19:57:09.715Z,57.21
2019-06-01T19:59:39.026Z,57.41
2019-06-01T20:02:23.134Z,57.50
2019-06-01T20:04:38.203Z,58.20
2019-06-01T20:07:08.418Z,58.97
2019-06-01T20:09:39.855Z,59.97
2019-06-01T20:12:12.921Z,61.14
2019-06-01T20:14:39.042Z,62.41
2019-06-01T20:17:07.770Z,61.97
2019-06-01T20:19:39.578Z,62.79
2019-06-01T20:22:08.282Z,62.11
2019-06-01T20:24:39.784Z,61.44
2019-06-01T20:27:08.517Z,62.20
2019-06-01T20:29:37.244Z,62.65
2019-06-01T20:32:06.268Z,64.09
2019-06-01T20:34:36.656Z,64.63
2019-06-01T20:37:06.050Z,64.22
2019-06-01T20:39:36.676Z,63.76
2019-06-01T20:42:20.366Z,64.44
2019-06-01T20:44:37.420Z,64.76
2019-06-01T20:47:07.587Z,65.18
2019-06-01T20:49:39.486Z,65.45
2019-06-01T20:52:08.215Z,64.83
2019-06-01T20:54:38.785Z,65.48
2019-06-01T20:57:07.503Z,66.41
2019-06-01T20:59:36.736Z,66.34
2019-06-01T21:02:08.337Z,66.90
2019-06-01T21:04:40.135Z,67.69
2019-06-01T21:07:08.947Z,68.15
2019-06-01T21:09:37.762Z,67.92
2019-06-01T21:12:06.472Z,68.02
2019-06-01T21:14:35.188Z,67.79
2019-06-01T21:17:05.008Z,68.07
2019-06-01T21:19:34.636Z,68.44
2019-06-01T21:22:04.972Z,68.76
2019-06-01T21:24:35.645Z,69.00
2019-06-01T21:27:06.556Z,70.05
2019-06-01T21:29:35.283Z,70.62
2019-06-01T21:32:03.999Z,71.39
2019-06-01T21:34:33.120Z,71.75
2019-06-01T21:37:02.017Z,72.06
2019-06-01T21:39:31.173Z,72.33
2019-06-01T21:42:00.000Z,72.12
2019-06-01T21:44:29.116Z,72.03
2019-06-01T21:46:57.931Z,72.15
2019-06-01T21:49:26.659Z,72.01
2019-06-01T21:51:55.476Z,72.15
2019-06-01T21:54:24.651Z,72.66
2019-06-01T21:56:53.624Z,73.64
2019-06-01T21:59:22.765Z,74.88
2019-06-01T22:01:51.664Z,74.38
2019-06-01T22:04:20.789Z,74.23
2019-06-01T22:06:49.710Z,73.64
2019-06-01T22:09:19.100Z,73.53
2019-06-01T22:11:47.846Z,73.80
2019-06-01T22:14:17.386Z,73.80
2019-06-01T22:16:46.311Z,72.86
2019-06-01T22:19:15.022Z,72.66
2019-06-01T22:21:43.765Z,73.04
2019-06-01T22:24:12.909Z,73.55
2019-06-01T22:26:41.728Z,73.52
2019-06-01T22:29:10.382Z,74.03
2019-06-01T22:31:39.247Z,74.08
2019-06-01T22:34:08.369Z,73.18
2019-06-01T22:36:40.070Z,73.33
2019-06-01T22:39:09.394Z,73.66
2019-06-01T22:41:38.126Z,73.85
2019-06-01T22:44:08.280Z,74.48
2019-06-01T22:46:39.762Z,74.73
2019-06-01T22:49:08.474Z,74.60
2019-06-01T22:51:37.641Z,74.64
2019-06-01T22:54:09.182Z,75.13
2019-06-01T22:56:37.800Z,75.73
2019-06-01T22:59:06.455Z,76.21
2019-06-01T23:01:35.300Z,75.74
2019-06-01T23:04:03.938Z,75.20
2019-06-01T23:06:32.666Z,74.85
2019-06-01T23:09:01.323Z,75.17
2019-06-01T23:11:29.976Z,75.64
2019-06-01T23:13:58.741Z,75.90
2019-06-01T23:16:30.240Z,75.18
2019-06-01T23:18:58.968Z,75.30
2019-06-01T23:21:27.897Z,74.95
2019-06-01T23:23:57.049Z,75.88
2019-06-01T23:26:26.206Z,75.52
2019-06-01T23:28:55.001Z,74.49
2019-06-01T23:31:24.284Z,74.32
2019-06-01T23:33:52.939Z,75.30
2019-06-01T23:36:22.478Z,75.24
2019-06-01T23:38:51.168Z,75.51
2019-06-01T23:41:19.891Z,75.75
2019-06-01T23:43:48.714Z,76.35
2019-06-01T23:46:17.389Z,77.17
2019-06-01T23:48:46.042Z,77.98
2019-06-01T23:51:15.162Z,78.53
2019-06-01T23:53:44.002Z,78.28
2019-06-01T23:56:12.710Z,78.94
2019-06-01T23:58:41.376Z,79.38
